createdAt,value
2022-12-04T00:01:44.783Z,78.90
2022-12-04T00:04:14.433Z,78.90
2022-12-04T00:06:42.587Z,78.90
2022-12-04T00:09:11.320Z,78.80
2022-12-04T00:11:40.110Z,79.00
2022-12-04T00:14:08.394Z,78.90
2022-12-04T00:16:36.753Z,78.80
2022-12-04T00:19:05.216Z,78.80
2022-12-04T00:21:37.228Z,78.70
2022-12-04T00:24:06.310Z,78.70
2022-12-04T00:26:34.731Z,78.70
2022-12-04T00:29:03.023Z,78.60
2022-12-04T00:31:32.376Z,78.50
2022-12-04T00:34:02.124Z,78.60
2022-12-04T00:36:33.519Z,78.50
2022-12-04T00:39:03.416Z,78.60
2022-12-04T00:41:33.554Z,78.60
2022-12-04T00:44:06.760Z,78.50
2022-12-04T00:46:35.238Z,78.60
2022-12-04T00:49:03.660Z,78.60
2022-12-04T00:51:32.175Z,78.60
2022-12-04T00:54:00.416Z,78.70
2022-12-04T00:56:30.746Z,78.50
2022-12-04T00:59:01.335Z,78.50
2022-12-04T01:01:30.497Z,78.70
2022-12-04T01:03:58.825Z,78.70
2022-12-04T01:06:28.858Z,78.70
2022-12-04T01:08:59.397Z,78.60
2022-12-04T01:11:30.435Z,78.50
2022-12-04T01:13:59.629Z,78.40
2022-12-04T01:16:30.246Z,78.70
2022-12-04T01:18:58.701Z,79.00
2022-12-04T01:21:26.950Z,79.00
2022-12-04T01:23:55.167Z,78.80
2022-12-04T01:26:23.305Z,78.90
2022-12-04T01:28:53.244Z,78.80
2022-12-04T01:31:23.287Z,78.70
2022-12-04T01:33:52.243Z,78.90
2022-12-04T01:36:24.129Z,78.80
2022-12-04T01:38:52.392Z,78.70
2022-12-04T01:41:24.006Z,78.60
2022-12-04T01:44:15.576Z,78.60
2022-12-04T01:46:45.068Z,78.80
2022-12-04T01:49:19.560Z,78.70
2022-12-04T01:51:51.086Z,78.70
2022-12-04T01:54:28.420Z,78.60
2022-12-04T01:57:02.421Z,78.60
2022-12-04T01:59:36.609Z,78.70
2022-12-04T02:02:08.268Z,78.60
2022-12-04T02:04:37.448Z,78.70
2022-12-04T02:07:05.756Z,78.50
2022-12-04T02:09:34.735Z,78.50
2022-12-04T02:12:12.812Z,78.60
2022-12-04T02:14:50.600Z,78.50
2022-12-04T02:17:27.226Z,78.60
2022-12-04T02:20:09.772Z,78.60
2022-12-04T02:22:56.049Z,78.70
2022-12-04T02:25:33.088Z,78.90
2022-12-04T02:28:08.858Z,79.00
2022-12-04T02:30:41.314Z,78.90
2022-12-04T02:33:20.106Z,78.90
2022-12-04T02:35:52.969Z,78.70
2022-12-04T02:38:26.310Z,78.70
2022-12-04T02:41:00.190Z,78.70
2022-12-04T02:43:33.832Z,78.90
2022-12-04T02:46:06.754Z,79.00
2022-12-04T02:48:39.185Z,78.90
2022-12-04T02:51:11.447Z,78.70
2022-12-04T02:53:46.215Z,78.80
2022-12-04T02:56:18.219Z,79.00
2022-12-04T02:58:52.943Z,78.90
2022-12-04T03:01:24.909Z,79.00
2022-12-04T03:03:56.552Z,78.80
2022-12-04T03:06:27.513Z,78.90
2022-12-04T03:08:59.369Z,78.90
2022-12-04T03:11:29.686Z,78.80
2022-12-04T03:14:04.255Z,78.80
2022-12-04T03:16:37.187Z,78.80
2022-12-04T03:19:09.377Z,78.60
2022-12-04T03:21:41.918Z,78.70
2022-12-04T03:24:17.599Z,78.70
2022-12-04T03:26:48.808Z,78.80
2022-12-04T03:29:23.712Z,78.90
2022-12-04T03:31:55.494Z,78.90
2022-12-04T03:34:29.188Z,78.90
2022-12-04T03:36:59.985Z,78.90
2022-12-04T03:39:36.033Z,79.00
2022-12-04T03:42:12.506Z,79.00
2022-12-04T03:44:45.581Z,78.80
2022-12-04T03:47:18.560Z,78.70
2022-12-04T03:49:54.427Z,78.70
2022-12-04T03:52:25.996Z,78.60
2022-12-04T03:54:58.685Z,78.50
2022-12-04T03:57:31.169Z,78.40
2022-12-04T04:00:06.188Z,78.40
2022-12-04T04:02:39.068Z,78.30
2022-12-04T04:05:10.935Z,78.40
2022-12-04T04:07:43.621Z,78.40
2022-12-04T04:10:16.358Z,78.50
2022-12-04T04:13:09.399Z,78.30
2022-12-04T04:16:10.945Z,78.30
2022-12-04T04:18:58.538Z,78.30
2022-12-04T04:21:49.561Z,78.60
2022-12-04T04:24:28.246Z,78.60
2022-12-04T04:26:59.119Z,78.50
2022-12-04T04:29:27.785Z,78.50
2022-12-04T04:32:01.523Z,78.60
2022-12-04T04:34:35.895Z,78.70
2022-12-04T04:37:12.375Z,78.60
2022-12-04T04:39:46.750Z,78.60
2022-12-04T04:42:22.373Z,78.40
2022-12-04T04:44:55.317Z,78.60
2022-12-04T04:47:30.079Z,78.50
2022-12-04T04:50:00.157Z,78.50
2022-12-04T04:52:29.143Z,78.50
2022-12-04T04:54:58.155Z,78.60
2022-12-04T04:57:31.029Z,78.70
2022-12-04T04:59:59.193Z,78.80
2022-12-04T05:02:29.348Z,78.80
2022-12-04T05:04:57.524Z,78.70
2022-12-04T05:07:25.689Z,78.50
2022-12-04T05:09:54.158Z,78.50
2022-12-04T05:12:22.550Z,78.40
2022-12-04T05:14:50.757Z,78.40
2022-12-04T05:17:18.952Z,78.40
2022-12-04T05:19:57.982Z,78.30
2022-12-04T05:22:28.431Z,78.30
2022-12-04T05:24:56.638Z,78.40
2022-12-04T05:27:25.990Z,78.40
2022-12-04T05:29:54.783Z,78.30
2022-12-04T05:32:23.929Z,78.30
2022-12-04T05:34:54.619Z,78.20
2022-12-04T05:37:23.252Z,78.40
2022-12-04T05:39:51.547Z,78.50
2022-12-04T05:42:19.719Z,78.30
2022-12-04T05:44:48.862Z,78.20
2022-12-04T05:47:17.044Z,78.20
2022-12-04T05:49:45.231Z,78.30
2022-12-04T05:52:14.794Z,78.30
2022-12-04T05:54:42.939Z,78.40
2022-12-04T05:57:11.080Z,78.50
2022-12-04T05:59:39.416Z,78.50
2022-12-04T06:02:07.611Z,78.60
2022-12-04T06:04:35.753Z,78.50
2022-12-04T06:07:03.952Z,78.40
2022-12-04T06:09:33.457Z,78.40
2022-12-04T06:12:05.549Z,78.20
2022-12-04T06:14:39.102Z,78.20
2022-12-04T06:17:08.301Z,78.30
2022-12-04T06:19:36.536Z,78.40
2022-12-04T06:22:05.058Z,78.40
2022-12-04T06:24:35.225Z,78.50
2022-12-04T06:29:51.550Z,78.40
2022-12-04T06:32:22.083Z,78.50
2022-12-04T06:34:52.810Z,78.40
2022-12-04T06:37:21.169Z,78.30
2022-12-04T06:39:50.783Z,78.30
2022-12-04T06:42:18.986Z,78.40
2022-12-04T06:44:47.160Z,78.20
2022-12-04T06:47:15.324Z,78.20
2022-12-04T06:49:43.455Z,78.10
2022-12-04T06:52:11.601Z,78.10
2022-12-04T06:54:39.731Z,78.10
2022-12-04T06:57:09.255Z,78.00
2022-12-04T06:59:37.739Z,77.90
2022-12-04T07:02:05.974Z,78.00
2022-12-04T07:04:34.333Z,78.00
2022-12-04T07:07:02.449Z,78.10
2022-12-04T07:09:30.582Z,78.10
2022-12-04T07:11:59.021Z,78.10
2022-12-04T07:14:28.584Z,78.20
2022-12-04T07:16:57.075Z,78.20
2022-12-04T07:19:25.345Z,78.20
2022-12-04T07:21:55.316Z,78.30
2022-12-04T07:24:23.459Z,78.20
2022-12-04T07:26:51.598Z,78.20
2022-12-04T07:29:19.785Z,78.20
2022-12-04T07:31:49.339Z,78.20
2022-12-04T07:34:17.474Z,78.40
2022-12-04T07:36:45.610Z,78.30
2022-12-04T07:39:13.973Z,78.30
2022-12-04T07:41:42.128Z,78.20
2022-12-04T07:44:10.241Z,78.10
2022-12-04T07:46:38.369Z,78.10
2022-12-04T07:49:07.889Z,78.20
2022-12-04T07:51:35.973Z,78.10
2022-12-04T07:54:04.623Z,78.20
2022-12-04T07:56:33.398Z,78.10
2022-12-04T07:59:02.526Z,78.00
2022-12-04T08:01:30.923Z,78.10
2022-12-04T08:04:01.311Z,78.40
2022-12-04T08:06:33.664Z,78.40
2022-12-04T08:09:07.725Z,78.10
2022-12-04T08:11:37.689Z,78.20
2022-12-04T08:14:08.832Z,78.10
2022-12-04T08:16:37.080Z,78.20
2022-12-04T08:19:05.852Z,78.10
2022-12-04T08:21:35.460Z,78.20
2022-12-04T08:24:04.155Z,78.20
2022-12-04T08:26:33.828Z,78.00
2022-12-04T08:29:03.035Z,77.90
2022-12-04T08:31:33.904Z,77.70
2022-12-04T08:34:03.953Z,78.00
2022-12-04T08:36:32.496Z,78.30
2022-12-04T08:39:02.126Z,78.20
2022-12-04T08:41:30.376Z,78.00
2022-12-04T08:43:59.701Z,77.90
2022-12-04T08:46:29.263Z,77.70
2022-12-04T08:48:58.058Z,77.70
2022-12-04T08:51:28.367Z,77.60
2022-12-04T08:53:57.552Z,77.50
2022-12-04T08:56:30.697Z,77.30
2022-12-04T08:58:59.902Z,77.70
2022-12-04T09:01:29.361Z,77.60
2022-12-04T09:03:57.808Z,77.50
2022-12-04T09:06:26.213Z,77.40
2022-12-04T09:08:55.495Z,77.40
2022-12-04T09:11:27.018Z,77.30
2022-12-04T09:13:55.941Z,77.00
2022-12-04T09:16:26.781Z,77.10
2022-12-04T09:18:55.842Z,77.00
2022-12-04T09:21:25.440Z,77.00
2022-12-04T09:23:53.753Z,77.00
2022-12-04T09:26:25.071Z,76.80
2022-12-04T09:28:56.256Z,77.00
2022-12-04T09:31:25.684Z,76.90
2022-12-04T09:33:54.623Z,76.80
2022-12-04T09:36:23.479Z,76.60
2022-12-04T09:38:52.991Z,76.70
2022-12-04T09:41:49.958Z,76.50
2022-12-04T09:44:22.857Z,76.50
2022-12-04T09:46:54.349Z,76.10
2022-12-04T09:49:26.844Z,76.30
2022-12-04T09:51:58.303Z,76.10
2022-12-04T09:54:33.181Z,76.40
2022-12-04T09:57:04.496Z,76.10
2022-12-04T09:59:34.463Z,76.10
2022-12-04T10:02:19.396Z,75.90
2022-12-04T10:04:47.821Z,75.90
2022-12-04T10:07:20.450Z,75.90
2022-12-04T10:09:56.440Z,76.00
2022-12-04T10:12:32.647Z,76.00
2022-12-04T10:15:18.669Z,75.70
2022-12-04T10:18:15.553Z,76.00
2022-12-04T10:20:55.722Z,76.00
2022-12-04T10:23:35.483Z,76.30
2022-12-04T10:26:06.691Z,76.50
2022-12-04T10:28:39.115Z,76.40
2022-12-04T10:31:14.571Z,76.40
2022-12-04T10:33:47.984Z,76.70
2022-12-04T10:36:19.952Z,76.70
2022-12-04T10:38:53.548Z,76.50
2022-12-04T10:41:27.920Z,76.50
2022-12-04T10:43:56.149Z,76.60
2022-12-04T10:46:27.764Z,76.70
2022-12-04T10:48:59.064Z,76.70
2022-12-04T10:51:27.155Z,76.80
2022-12-04T10:53:58.668Z,76.80
2022-12-04T10:56:30.074Z,76.80
2022-12-04T10:59:00.370Z,76.80
2022-12-04T11:01:32.277Z,76.90
2022-12-04T11:04:05.360Z,76.90
2022-12-04T11:06:34.192Z,76.70
2022-12-04T11:09:13.787Z,77.00
2022-12-04T11:11:44.376Z,77.20
2022-12-04T11:14:17.990Z,77.30
2022-12-04T11:16:51.238Z,77.00
2022-12-04T11:19:25.448Z,76.70
2022-12-04T11:21:55.951Z,77.00
2022-12-04T11:24:34.304Z,77.20
2022-12-04T11:27:03.587Z,77.30
2022-12-04T11:29:37.890Z,77.60
2022-12-04T11:32:08.755Z,77.60
2022-12-04T11:34:39.980Z,77.50
2022-12-04T11:37:18.248Z,77.70
2022-12-04T11:39:47.240Z,77.80
2022-12-04T11:42:20.376Z,77.70
2022-12-04T11:44:55.404Z,77.90
2022-12-04T11:47:30.039Z,78.10
2022-12-04T11:50:12.313Z,78.10
2022-12-04T11:52:53.518Z,78.30
2022-12-04T11:55:30.278Z,78.40
2022-12-04T11:58:13.910Z,78.40
2022-12-04T12:00:51.758Z,78.20
2022-12-04T12:03:28.116Z,78.30
2022-12-04T12:06:14.957Z,78.50
2022-12-04T12:09:04.323Z,78.70
2022-12-04T12:11:35.868Z,79.00
2022-12-04T12:14:10.864Z,79.20
2022-12-04T12:19:41.229Z,78.90
2022-12-04T12:22:21.954Z,79.20
2022-12-04T12:25:01.039Z,79.10
2022-12-04T12:27:42.812Z,79.20
2022-12-04T12:30:17.247Z,79.20
2022-12-04T12:33:04.466Z,79.40
2022-12-04T12:35:40.139Z,79.30
2022-12-04T12:38:13.290Z,79.30
2022-12-04T12:40:44.458Z,79.40
2022-12-04T12:43:17.299Z,79.30
2022-12-04T12:45:53.097Z,79.40
2022-12-04T12:48:29.765Z,79.40
2022-12-04T12:51:28.399Z,79.50
2022-12-04T12:53:55.734Z,79.80
2022-12-04T12:56:32.311Z,79.90
2022-12-04T12:59:05.185Z,79.90
2022-12-04T13:01:44.645Z,79.70
2022-12-04T13:04:19.710Z,79.80
2022-12-04T13:06:58.034Z,79.80
2022-12-04T13:09:31.749Z,79.80
2022-12-04T13:12:04.605Z,80.00
2022-12-04T13:14:32.826Z,79.90
2022-12-04T13:17:05.806Z,79.60
2022-12-04T13:19:41.658Z,79.60
2022-12-04T13:22:19.629Z,79.60
2022-12-04T13:25:10.232Z,79.20
2022-12-04T13:27:50.947Z,79.20
2022-12-04T13:30:25.099Z,79.20
2022-12-04T13:33:32.922Z,79.10
2022-12-04T13:36:29.254Z,79.10
2022-12-04T13:39:30.943Z,78.80
2022-12-04T13:42:01.867Z,79.00
2022-12-04T13:44:33.403Z,79.00
2022-12-04T13:47:04.844Z,79.10
2022-12-04T13:49:35.221Z,79.10
2022-12-04T13:52:06.568Z,78.90
2022-12-04T13:54:38.192Z,79.00
2022-12-04T13:57:21.290Z,79.00
2022-12-04T13:59:50.709Z,78.90
2022-12-04T14:02:29.155Z,78.90
2022-12-04T14:05:00.897Z,79.10
2022-12-04T14:07:34.531Z,79.10
2022-12-04T14:10:06.565Z,79.10
2022-12-04T14:12:38.928Z,79.10
2022-12-04T14:15:09.744Z,79.20
2022-12-04T14:17:40.650Z,79.20
2022-12-04T14:20:25.261Z,79.00
2022-12-04T14:22:53.511Z,78.80
2022-12-04T14:25:38.565Z,78.70
2022-12-04T14:28:27.607Z,78.70
2022-12-04T14:31:07.564Z,78.70
2022-12-04T14:33:40.567Z,78.80
2022-12-04T14:36:18.029Z,78.70
2022-12-04T14:38:48.744Z,78.70
2022-12-04T14:41:25.783Z,78.80
2022-12-04T14:43:54.876Z,78.80
2022-12-04T14:46:29.223Z,78.70
2022-12-04T14:49:05.899Z,78.70
2022-12-04T14:51:37.659Z,78.60
2022-12-04T14:54:18.028Z,78.50
2022-12-04T14:56:59.036Z,78.50
2022-12-04T14:59:35.765Z,78.60
2022-12-04T15:02:06.995Z,78.90
2022-12-04T15:04:36.627Z,78.90
2022-12-04T15:07:05.776Z,79.00
2022-12-04T15:09:51.885Z,79.00
2022-12-04T15:12:35.904Z,79.20
2022-12-04T15:15:12.875Z,79.40
2022-12-04T15:17:41.299Z,79.40
2022-12-04T15:20:12.991Z,79.40
2022-12-04T15:22:44.218Z,79.40
2022-12-04T15:25:19.282Z,79.50
2022-12-04T15:27:50.309Z,79.50
2022-12-04T15:30:21.625Z,79.50
2022-12-04T15:32:53.413Z,79.50
2022-12-04T15:35:31.291Z,79.60
2022-12-04T15:38:02.556Z,79.30
2022-12-04T15:40:31.666Z,79.50
2022-12-04T15:43:17.414Z,79.50
2022-12-04T15:45:45.917Z,79.40
2022-12-04T15:48:25.776Z,79.40
2022-12-04T15:50:58.924Z,79.60
2022-12-04T15:53:29.882Z,79.60
2022-12-04T15:56:03.611Z,79.80
2022-12-04T15:58:35.332Z,79.90
2022-12-04T16:01:05.757Z,79.90
2022-12-04T16:03:46.814Z,80.10
2022-12-04T16:06:18.986Z,80.00
2022-12-04T16:08:48.889Z,80.00
2022-12-04T16:11:33.354Z,80.20
2022-12-04T16:14:17.364Z,80.30
2022-12-04T16:16:47.904Z,80.40
2022-12-04T16:19:23.629Z,80.40
2022-12-04T16:21:51.930Z,80.20
2022-12-04T16:24:20.206Z,80.60
2022-12-04T16:26:50.127Z,80.70
2022-12-04T16:29:20.025Z,80.70
2022-12-04T16:31:48.337Z,80.50
2022-12-04T16:34:16.835Z,80.90
2022-12-04T16:36:45.061Z,81.10
2022-12-04T16:39:13.265Z,81.00
2022-12-04T16:41:42.236Z,80.90
2022-12-04T16:44:15.800Z,81.10
2022-12-04T16:46:46.377Z,81.20
2022-12-04T16:49:15.020Z,81.20
2022-12-04T16:51:46.845Z,81.30
2022-12-04T16:54:14.979Z,81.30
2022-12-04T16:56:43.344Z,81.20
2022-12-04T16:59:12.329Z,81.30
2022-12-04T17:01:44.874Z,81.30
2022-12-04T17:04:13.163Z,81.70
2022-12-04T17:06:41.795Z,81.40
2022-12-04T17:09:10.981Z,81.50
2022-12-04T17:11:39.382Z,81.90
2022-12-04T17:14:08.056Z,82.00
2022-12-04T17:16:36.493Z,81.90
2022-12-04T17:19:06.540Z,82.00
2022-12-04T17:21:35.306Z,82.00
2022-12-04T17:24:03.617Z,82.30
2022-12-04T17:26:31.798Z,82.20
2022-12-04T17:29:00.048Z,82.30
2022-12-04T17:31:28.625Z,82.20
2022-12-04T17:33:58.407Z,82.20
2022-12-04T17:36:28.777Z,81.90
2022-12-04T17:38:58.469Z,82.20
2022-12-04T17:41:26.731Z,82.00
2022-12-04T17:43:55.175Z,82.20
2022-12-04T17:46:24.692Z,82.10
2022-12-04T17:48:53.334Z,82.40
2022-12-04T17:51:24.207Z,82.30
2022-12-04T17:53:54.004Z,82.30
2022-12-04T17:56:24.864Z,82.20
2022-12-04T17:58:53.202Z,82.20
2022-12-04T18:01:22.946Z,82.10
2022-12-04T18:03:53.629Z,82.20
2022-12-04T18:06:24.017Z,82.30
2022-12-04T18:08:54.096Z,82.20
2022-12-04T18:11:25.011Z,82.10
2022-12-04T18:13:57.118Z,82.30
2022-12-04T18:16:25.701Z,82.20
2022-12-04T18:18:54.425Z,82.30
2022-12-04T18:21:22.781Z,82.20
2022-12-04T18:23:51.308Z,82.10
2022-12-04T18:26:22.501Z,82.10
2022-12-04T18:28:51.535Z,82.20
2022-12-04T18:31:20.680Z,82.10
2022-12-04T18:33:49.719Z,82.20
2022-12-04T18:36:19.615Z,82.30
2022-12-04T18:38:48.210Z,82.00
2022-12-04T18:41:16.537Z,82.20
2022-12-04T18:43:46.811Z,82.30
2022-12-04T18:46:16.390Z,82.20
2022-12-04T18:48:46.174Z,82.10
2022-12-04T18:51:20.415Z,82.10
2022-12-04T18:53:49.069Z,82.20
2022-12-04T18:56:17.491Z,82.10
2022-12-04T18:58:47.544Z,82.20
2022-12-04T19:01:18.459Z,82.10
2022-12-04T19:03:48.147Z,82.00
2022-12-04T19:06:16.558Z,82.00
2022-12-04T19:08:44.867Z,82.00
2022-12-04T19:11:14.724Z,81.90
2022-12-04T19:13:43.246Z,82.00
2022-12-04T19:16:14.972Z,82.00
2022-12-04T19:18:45.244Z,82.00
2022-12-04T19:21:14.460Z,82.00
2022-12-04T19:23:43.651Z,82.10
2022-12-04T19:26:11.805Z,82.10
2022-12-04T19:28:40.265Z,82.10
2022-12-04T19:31:17.407Z,81.90
2022-12-04T19:33:45.743Z,81.90
2022-12-04T19:36:15.458Z,82.00
2022-12-04T19:38:44.274Z,81.70
2022-12-04T19:41:13.968Z,81.90
2022-12-04T19:43:44.538Z,81.90
2022-12-04T19:46:14.928Z,81.80
2022-12-04T19:48:46.197Z,81.70
2022-12-04T19:51:16.576Z,81.90
2022-12-04T19:53:45.703Z,81.90
2022-12-04T19:56:15.660Z,82.00
2022-12-04T19:58:44.196Z,81.90
2022-12-04T20:01:14.205Z,81.90
2022-12-04T20:03:44.086Z,82.00
2022-12-04T20:06:14.246Z,82.00
2022-12-04T20:08:43.497Z,82.00
2022-12-04T20:11:15.604Z,82.00
2022-12-04T20:13:44.868Z,82.00
2022-12-04T20:16:15.121Z,82.10
2022-12-04T20:18:45.357Z,81.90
2022-12-04T20:21:14.792Z,82.00
2022-12-04T20:23:44.650Z,82.10
2022-12-04T20:26:14.978Z,81.90
2022-12-04T20:28:43.505Z,81.90
2022-12-04T20:31:15.921Z,81.90
2022-12-04T20:33:47.341Z,81.70
2022-12-04T20:36:16.185Z,81.90
2022-12-04T20:38:44.421Z,81.70
2022-12-04T20:41:16.004Z,81.90
2022-12-04T20:43:45.205Z,81.70
2022-12-04T20:46:17.093Z,81.70
2022-12-04T20:48:48.867Z,81.70
2022-12-04T20:51:18.547Z,81.70
2022-12-04T20:53:47.137Z,81.70
2022-12-04T20:56:15.654Z,81.70
2022-12-04T20:58:44.280Z,81.70
2022-12-04T21:01:14.534Z,81.60
2022-12-04T21:03:43.148Z,81.60
2022-12-04T21:06:15.971Z,81.40
2022-12-04T21:08:57.163Z,81.40
2022-12-04T21:11:27.144Z,81.30
2022-12-04T21:14:20.113Z,81.30
2022-12-04T21:16:49.115Z,81.30
2022-12-04T21:19:19.717Z,81.30
2022-12-04T21:21:49.873Z,81.40
2022-12-04T21:24:20.452Z,81.20
2022-12-04T21:26:48.794Z,81.10
2022-12-04T21:29:17.337Z,81.30
2022-12-04T21:31:45.695Z,81.30
2022-12-04T21:34:16.398Z,81.20
2022-12-04T21:36:46.348Z,81.10
2022-12-04T21:39:16.709Z,81.30
2022-12-04T21:42:05.202Z,81.50
2022-12-04T21:44:35.524Z,81.50
2022-12-04T21:47:03.728Z,81.50
2022-12-04T21:49:34.265Z,81.70
2022-12-04T21:52:03.788Z,81.60
2022-12-04T21:54:36.765Z,81.60
2022-12-04T21:57:07.498Z,81.80
2022-12-04T21:59:35.897Z,81.80
2022-12-04T22:02:06.781Z,81.80
2022-12-04T22:04:38.459Z,81.80
2022-12-04T22:07:06.588Z,81.80
2022-12-04T22:09:39.221Z,81.70
2022-12-04T22:12:26.758Z,81.60
2022-12-04T22:14:59.572Z,81.50
2022-12-04T22:17:30.667Z,81.50
2022-12-04T22:19:59.013Z,81.50
2022-12-04T22:22:29.968Z,81.50
2022-12-04T22:25:03.431Z,81.40
2022-12-04T22:27:34.125Z,81.40
2022-12-04T22:30:05.324Z,81.50
2022-12-04T22:32:35.258Z,81.50
2022-12-04T22:35:11.496Z,81.50
2022-12-04T22:40:28.795Z,81.50
2022-12-04T22:42:57.010Z,81.40
2022-12-04T22:45:29.127Z,81.40
2022-12-04T22:47:57.495Z,81.40
2022-12-04T22:50:28.107Z,81.40
2022-12-04T22:52:58.364Z,81.10
2022-12-04T22:55:29.282Z,81.30
2022-12-04T22:58:00.136Z,81.30
2022-12-04T23:00:34.895Z,81.30
2022-12-04T23:03:03.629Z,81.30
2022-12-04T23:05:34.097Z,81.30
2022-12-04T23:08:02.319Z,81.20
2022-12-04T23:10:31.912Z,81.30
2022-12-04T23:13:00.563Z,81.10
2022-12-04T23:15:28.977Z,81.20
2022-12-04T23:17:57.263Z,81.30
2022-12-04T23:20:25.653Z,81.50
2022-12-04T23:22:55.836Z,81.30
2022-12-04T23:25:23.967Z,81.40
2022-12-04T23:27:53.593Z,81.40
2022-12-04T23:30:27.487Z,81.40
2022-12-04T23:32:57.806Z,81.30
2022-12-04T23:35:26.028Z,81.40
2022-12-04T23:37:54.878Z,81.30
2022-12-04T23:40:23.953Z,81.30
2022-12-04T23:42:53.823Z,81.20
2022-12-04T23:45:22.541Z,81.30
2022-12-04T23:47:51.252Z,81.30
2022-12-04T23:50:20.302Z,81.40
2022-12-04T23:52:48.583Z,81.30
2022-12-04T23:55:17.278Z,81.40
2022-12-04T23:57:48.802Z,81.40
